createdAt,value
2018-08-27T00:00:18.308Z,2.13
2018-08-27T00:02:47.630Z,2.00
2018-08-27T00:05:17.298Z,2.70
2018-08-27T00:07:46.502Z,2.30
2018-08-27T00:10:15.442Z,2.47
2018-08-27T00:12:44.567Z,2.40
2018-08-27T00:15:13.590Z,2.40
2018-08-27T00:17:42.643Z,2.00
2018-08-27T00:20:11.755Z,2.70
2018-08-27T00:22:41.971Z,2.10
2018-08-27T00:25:11.058Z,2.20
2018-08-27T00:27:40.052Z,2.07
2018-08-27T00:30:09.374Z,2.03
2018-08-27T00:32:38.442Z,2.33
2018-08-27T00:35:07.840Z,2.30
2018-08-27T00:37:37.274Z,2.07
2018-08-27T00:40:06.368Z,1.87
2018-08-27T00:42:36.107Z,1.80
2018-08-27T00:45:05.379Z,2.23
2018-08-27T00:47:34.335Z,2.00
2018-08-27T00:50:03.410Z,2.10
2018-08-27T00:52:33.071Z,2.47
2018-08-27T00:55:02.462Z,1.80
2018-08-27T00:57:31.861Z,2.03
2018-08-27T01:00:01.085Z,1.93
2018-08-27T01:02:30.230Z,1.80
2018-08-27T01:04:59.353Z,2.00
2018-08-27T01:07:28.642Z,2.10
2018-08-27T01:09:57.796Z,2.50
2018-08-27T01:12:26.784Z,2.20
2018-08-27T01:14:55.895Z,2.80
2018-08-27T01:17:25.206Z,2.10
2018-08-27T01:19:54.098Z,1.80
2018-08-27T01:22:23.084Z,2.20
2018-08-27T01:24:52.584Z,2.07
2018-08-27T01:27:22.506Z,2.07
2018-08-27T01:29:51.669Z,2.33
2018-08-27T01:32:25.537Z,2.13
2018-08-27T01:34:55.566Z,2.10
2018-08-27T01:37:25.438Z,2.50
2018-08-27T01:39:55.642Z,1.93
2018-08-27T01:42:25.591Z,1.80
2018-08-27T01:44:54.763Z,2.30
2018-08-27T01:47:24.045Z,1.97
2018-08-27T01:49:53.060Z,2.47
2018-08-27T01:52:22.251Z,2.10
2018-08-27T01:54:51.528Z,2.07
2018-08-27T01:57:20.555Z,2.37
2018-08-27T01:59:50.370Z,2.13
2018-08-27T02:02:20.563Z,2.00
2018-08-27T02:04:49.859Z,2.47
2018-08-27T02:07:19.214Z,2.50
2018-08-27T02:09:48.404Z,2.47
2018-08-27T02:12:17.793Z,2.20
2018-08-27T02:14:47.173Z,2.30
2018-08-27T02:17:16.400Z,2.20
2018-08-27T02:19:45.894Z,2.23
2018-08-27T02:22:15.141Z,2.27
2018-08-27T02:24:44.122Z,2.23
2018-08-27T02:27:15.167Z,2.23
2018-08-27T02:29:44.290Z,2.33
2018-08-27T02:32:13.288Z,1.83
2018-08-27T02:34:42.846Z,2.50
2018-08-27T02:37:11.826Z,2.47
2018-08-27T02:39:41.454Z,2.17
2018-08-27T02:42:10.806Z,2.30
2018-08-27T02:44:40.050Z,2.50
2018-08-27T02:47:09.304Z,2.53
2018-08-27T02:49:38.386Z,2.03
2018-08-27T02:52:07.691Z,2.43
2018-08-27T02:54:36.960Z,2.07
2018-08-27T02:57:06.897Z,2.10
2018-08-27T02:59:36.547Z,1.93
2018-08-27T03:02:06.174Z,2.20
2018-08-27T03:04:35.252Z,2.10
2018-08-27T03:07:04.613Z,2.33
2018-08-27T03:09:33.620Z,2.47
2018-08-27T03:12:03.585Z,2.10
2018-08-27T03:14:32.630Z,1.87
2018-08-27T03:17:01.724Z,2.50
2018-08-27T03:19:31.299Z,2.20
2018-08-27T03:22:01.285Z,2.60
2018-08-27T03:24:30.447Z,2.57
2018-08-27T03:26:59.903Z,2.30
2018-08-27T03:29:29.663Z,2.73
2018-08-27T03:31:58.814Z,2.23
2018-08-27T03:34:28.619Z,2.67
2018-08-27T03:36:57.822Z,2.57
2018-08-27T03:39:26.868Z,2.93
2018-08-27T03:41:55.898Z,2.77
2018-08-27T03:44:24.921Z,2.80
2018-08-27T03:46:53.948Z,2.93
2018-08-27T03:49:22.996Z,2.90
2018-08-27T03:51:52.082Z,2.10
2018-08-27T03:54:21.236Z,2.60
2018-08-27T03:56:50.130Z,2.93
2018-08-27T03:59:19.463Z,2.70
2018-08-27T04:01:48.736Z,2.40
2018-08-27T04:04:17.916Z,2.80
2018-08-27T04:06:48.829Z,2.93
2018-08-27T04:09:18.010Z,3.00
2018-08-27T04:11:46.857Z,2.40
2018-08-27T04:14:16.029Z,3.03
2018-08-27T04:16:45.478Z,2.90
2018-08-27T04:19:15.145Z,3.10
2018-08-27T04:21:44.306Z,2.97
2018-08-27T04:24:13.313Z,2.90
2018-08-27T04:26:42.378Z,3.40
2018-08-27T04:29:11.911Z,3.63
2018-08-27T04:31:41.342Z,2.73
2018-08-27T04:34:10.429Z,2.97
2018-08-27T04:36:40.446Z,2.87
2018-08-27T04:39:10.740Z,3.07
2018-08-27T04:41:39.798Z,3.23
2018-08-27T04:44:09.204Z,2.80
2018-08-27T04:46:39.238Z,2.90
2018-08-27T04:49:08.431Z,2.60
2018-08-27T04:51:37.647Z,2.60
2018-08-27T04:54:07.676Z,3.20
2018-08-27T04:56:36.900Z,2.93
2018-08-27T04:59:11.096Z,3.03
2018-08-27T05:01:40.827Z,3.10
2018-08-27T05:04:09.925Z,3.20
2018-08-27T05:06:39.352Z,2.50
2018-08-27T05:09:10.122Z,3.53
2018-08-27T05:11:40.101Z,2.60
2018-08-27T05:14:10.736Z,3.40
2018-08-27T05:16:39.850Z,2.80
2018-08-27T05:19:10.382Z,2.73
2018-08-27T05:21:39.458Z,2.80
2018-08-27T05:24:09.083Z,3.03
2018-08-27T05:26:38.182Z,3.10
2018-08-27T05:29:07.769Z,3.00
2018-08-27T05:31:36.952Z,3.10
2018-08-27T05:34:06.268Z,3.40
2018-08-27T05:36:35.314Z,3.40
2018-08-27T05:39:05.103Z,3.17
2018-08-27T05:41:34.062Z,3.70
2018-08-27T05:44:03.303Z,3.70
2018-08-27T05:46:32.420Z,3.20
2018-08-27T05:49:01.760Z,3.00
2018-08-27T05:51:30.943Z,3.37
2018-08-27T05:54:00.093Z,3.23
2018-08-27T05:56:29.627Z,3.33
2018-08-27T05:58:58.683Z,2.80
2018-08-27T06:01:28.055Z,4.00
2018-08-27T06:03:57.296Z,3.00
2018-08-27T06:06:26.599Z,3.80
2018-08-27T06:08:55.719Z,3.37
2018-08-27T06:11:25.169Z,3.80
2018-08-27T06:13:54.314Z,3.80
2018-08-27T06:16:23.467Z,3.83
2018-08-27T06:18:52.646Z,3.40
2018-08-27T06:21:22.250Z,3.37
2018-08-27T06:23:51.279Z,3.50
2018-08-27T06:26:20.245Z,3.60
2018-08-27T06:28:49.426Z,4.33
2018-08-27T06:31:18.400Z,3.80
2018-08-27T06:33:47.673Z,3.33
2018-08-27T06:36:17.081Z,3.77
2018-08-27T06:38:46.331Z,3.90
2018-08-27T06:41:15.937Z,4.20
2018-08-27T06:43:44.950Z,3.70
2018-08-27T06:46:14.227Z,3.70
2018-08-27T06:48:43.941Z,4.00
2018-08-27T06:51:13.375Z,3.53
2018-08-27T06:53:42.368Z,3.60
2018-08-27T06:56:11.589Z,3.67
2018-08-27T06:58:40.887Z,3.40
2018-08-27T07:01:09.967Z,3.47
2018-08-27T07:03:39.375Z,3.23
2018-08-27T07:06:08.771Z,2.97
2018-08-27T07:08:37.793Z,3.53
2018-08-27T07:11:07.525Z,3.43
2018-08-27T07:13:36.758Z,3.40
2018-08-27T07:16:06.460Z,3.30
2018-08-27T07:18:35.710Z,3.07
2018-08-27T07:21:04.742Z,3.30
2018-08-27T07:23:33.982Z,3.30
2018-08-27T07:26:03.196Z,3.10
2018-08-27T07:28:32.419Z,2.80
2018-08-27T07:31:07.951Z,2.70
2018-08-27T07:33:37.069Z,3.07
2018-08-27T07:36:06.378Z,3.13
2018-08-27T07:38:35.773Z,2.73
2018-08-27T07:41:04.948Z,2.60
2018-08-27T07:43:34.378Z,2.40
2018-08-27T07:46:03.603Z,2.50
2018-08-27T07:48:32.775Z,2.60
2018-08-27T07:51:07.063Z,2.23
2018-08-27T07:53:36.419Z,2.87
2018-08-27T07:56:05.801Z,2.40
2018-08-27T07:58:35.168Z,2.20
2018-08-27T08:01:04.403Z,2.27
2018-08-27T08:03:33.627Z,2.30
2018-08-27T08:06:02.667Z,2.40
2018-08-27T08:08:32.304Z,2.17
2018-08-27T08:11:01.550Z,2.40
2018-08-27T08:13:30.679Z,2.20
2018-08-27T08:16:00.108Z,2.63
2018-08-27T08:18:29.639Z,2.90
2018-08-27T08:20:59.193Z,2.80
2018-08-27T08:23:29.006Z,2.53
2018-08-27T08:25:58.407Z,2.50
2018-08-27T08:28:27.553Z,2.30
2018-08-27T08:30:56.607Z,2.00
2018-08-27T08:33:25.999Z,2.13
2018-08-27T08:35:55.130Z,2.13
2018-08-27T08:38:24.533Z,2.23
2018-08-27T08:41:00.381Z,2.63
2018-08-27T08:43:29.385Z,2.20
2018-08-27T08:45:58.976Z,2.57
2018-08-27T08:48:28.387Z,2.13
2018-08-27T08:50:57.613Z,2.27
2018-08-27T08:53:27.014Z,2.30
2018-08-27T08:55:56.245Z,2.13
2018-08-27T08:58:26.870Z,2.27
2018-08-27T09:00:56.301Z,2.07
2018-08-27T09:03:25.799Z,2.83
2018-08-27T09:05:55.204Z,2.53
2018-08-27T09:08:24.208Z,2.17
2018-08-27T09:10:53.283Z,1.97
2018-08-27T09:13:22.364Z,1.57
2018-08-27T09:15:51.654Z,1.90
2018-08-27T09:18:24.651Z,2.30
2018-08-27T09:20:53.774Z,1.77
2018-08-27T09:23:23.290Z,2.20
2018-08-27T09:25:53.312Z,2.00
2018-08-27T09:28:22.488Z,2.00
2018-08-27T09:30:51.685Z,1.77
2018-08-27T09:33:20.845Z,1.90
2018-08-27T09:35:50.191Z,1.60
2018-08-27T09:38:19.490Z,1.50
2018-08-27T09:40:48.546Z,1.63
2018-08-27T09:43:18.767Z,1.47
2018-08-27T09:45:47.959Z,1.50
2018-08-27T09:48:17.067Z,1.60
2018-08-27T09:50:46.167Z,1.60
2018-08-27T09:53:15.346Z,1.57
2018-08-27T09:55:44.864Z,1.20
2018-08-27T09:58:14.003Z,1.70
2018-08-27T10:00:48.169Z,1.47
2018-08-27T10:03:17.518Z,1.23
2018-08-27T10:05:46.717Z,1.50
2018-08-27T10:08:16.253Z,1.20
2018-08-27T10:10:45.292Z,1.33
2018-08-27T10:13:14.378Z,1.30
2018-08-27T10:15:43.675Z,1.07
2018-08-27T10:18:12.921Z,1.23
2018-08-27T10:20:42.201Z,1.30
2018-08-27T10:23:11.269Z,1.30
2018-08-27T10:25:40.393Z,1.03
2018-08-27T10:28:09.595Z,1.00
2018-08-27T10:30:38.907Z,1.20
2018-08-27T10:33:08.024Z,1.07
2018-08-27T10:35:37.238Z,1.10
2018-08-27T10:38:06.496Z,1.27
2018-08-27T10:40:35.883Z,1.33
2018-08-27T10:43:05.157Z,1.50
2018-08-27T10:45:34.581Z,1.30
2018-08-27T10:48:03.729Z,1.50
2018-08-27T10:50:33.904Z,1.20
2018-08-27T10:53:03.598Z,1.80
2018-08-27T10:55:33.573Z,1.30
2018-08-27T10:58:02.659Z,1.40
2018-08-27T11:00:31.664Z,1.40
2018-08-27T11:03:03.113Z,1.60
2018-08-27T11:05:32.435Z,1.60
2018-08-27T11:08:02.234Z,1.20
2018-08-27T11:10:31.393Z,1.10
2018-08-27T11:13:00.666Z,1.20
2018-08-27T11:15:29.810Z,1.20
2018-08-27T11:17:59.129Z,1.20
2018-08-27T11:20:28.466Z,1.10
2018-08-27T11:22:57.510Z,1.40
2018-08-27T11:25:26.604Z,1.30
2018-08-27T11:27:55.884Z,1.50
2018-08-27T11:30:25.669Z,1.20
2018-08-27T11:32:54.994Z,1.47
2018-08-27T11:35:24.617Z,1.30
2018-08-27T11:37:53.668Z,1.70
2018-08-27T11:40:22.944Z,1.70
2018-08-27T11:42:52.247Z,1.63
2018-08-27T11:45:21.487Z,1.80
2018-08-27T11:47:50.746Z,1.43
2018-08-27T11:50:20.067Z,1.40
2018-08-27T11:52:49.318Z,1.30
2018-08-27T11:55:19.020Z,1.47
2018-08-27T11:57:48.210Z,1.50
2018-08-27T12:00:22.622Z,1.40
2018-08-27T12:02:52.035Z,1.70
2018-08-27T12:05:21.332Z,1.10
2018-08-27T12:07:50.456Z,1.70
2018-08-27T12:10:19.607Z,1.13
2018-08-27T12:12:52.581Z,1.50
2018-08-27T12:15:21.815Z,1.43
2018-08-27T12:17:51.376Z,1.70
2018-08-27T12:20:20.635Z,1.33
2018-08-27T12:22:49.805Z,1.40
2018-08-27T12:25:18.852Z,1.93
2018-08-27T12:27:47.898Z,1.60
2018-08-27T12:30:17.336Z,1.57
2018-08-27T12:32:46.575Z,1.57
2018-08-27T12:35:15.856Z,1.60
2018-08-27T12:37:45.003Z,1.30
2018-08-27T12:40:14.275Z,1.30
2018-08-27T12:42:43.493Z,1.47
2018-08-27T12:45:12.759Z,1.47
2018-08-27T12:47:42.100Z,1.67
2018-08-27T12:50:11.242Z,1.47
2018-08-27T12:52:40.271Z,1.50
2018-08-27T12:55:09.716Z,1.30
2018-08-27T12:57:39.386Z,1.90
2018-08-27T13:00:12.679Z,1.40
2018-08-27T13:02:41.963Z,2.00
2018-08-27T13:05:11.298Z,1.77
2018-08-27T13:07:41.863Z,1.40
2018-08-27T13:10:11.180Z,1.60
2018-08-27T13:12:40.555Z,1.37
2018-08-27T13:15:10.265Z,1.70
2018-08-27T13:17:39.370Z,1.40
2018-08-27T13:20:08.393Z,1.60
2018-08-27T13:22:37.497Z,1.70
2018-08-27T13:25:06.501Z,1.40
2018-08-27T13:27:35.885Z,1.20
2018-08-27T13:30:05.231Z,1.40
2018-08-27T13:32:34.710Z,1.43
2018-08-27T13:35:04.973Z,1.50
2018-08-27T13:37:34.107Z,1.57
2018-08-27T13:40:03.473Z,1.80
2018-08-27T13:42:32.887Z,1.57
2018-08-27T13:45:02.137Z,1.40
2018-08-27T13:47:31.166Z,1.20
2018-08-27T13:50:00.324Z,1.57
2018-08-27T13:52:29.426Z,1.30
2018-08-27T13:54:58.717Z,1.20
2018-08-27T13:57:27.673Z,1.40
2018-08-27T13:59:57.189Z,1.60
2018-08-27T14:02:26.443Z,1.40
2018-08-27T14:04:55.597Z,1.40
2018-08-27T14:07:24.588Z,1.40
2018-08-27T14:09:53.675Z,1.30
2018-08-27T14:12:22.798Z,2.00
2018-08-27T14:14:52.378Z,1.57
2018-08-27T14:17:21.664Z,1.37
2018-08-27T14:19:50.933Z,2.00
2018-08-27T14:22:20.390Z,1.60
2018-08-27T14:24:49.605Z,1.60
2018-08-27T14:27:19.380Z,2.00
2018-08-27T14:29:49.083Z,1.70
2018-08-27T14:32:18.327Z,1.43
2018-08-27T14:34:47.342Z,1.43
2018-08-27T14:37:16.395Z,1.50
2018-08-27T14:39:45.618Z,1.30
2018-08-27T14:42:14.721Z,2.00
2018-08-27T14:44:44.121Z,1.73
2018-08-27T14:47:13.144Z,1.90
2018-08-27T14:49:42.396Z,1.70
2018-08-27T14:52:11.361Z,1.40
2018-08-27T14:54:40.360Z,1.60
2018-08-27T14:57:09.304Z,1.40
2018-08-27T14:59:38.811Z,2.20
2018-08-27T15:02:07.855Z,1.70
2018-08-27T15:04:37.383Z,1.40
2018-08-27T15:07:06.973Z,1.40
2018-08-27T15:09:36.337Z,1.70
2018-08-27T15:12:05.885Z,1.67
2018-08-27T15:14:41.423Z,1.93
2018-08-27T15:17:11.070Z,1.53
2018-08-27T15:19:40.590Z,1.60
2018-08-27T15:22:09.877Z,2.00
2018-08-27T15:24:39.139Z,1.73
2018-08-27T15:27:08.335Z,1.80
2018-08-27T15:29:37.646Z,1.80
2018-08-27T15:32:06.939Z,1.90
2018-08-27T15:34:35.887Z,1.50
2018-08-27T15:37:05.078Z,1.47
2018-08-27T15:39:34.194Z,1.50
2018-08-27T15:42:03.727Z,1.50
2018-08-27T15:44:32.776Z,1.67
2018-08-27T15:47:02.012Z,1.90
2018-08-27T15:49:31.439Z,1.70
2018-08-27T15:52:00.829Z,1.70
2018-08-27T15:54:30.134Z,1.50
2018-08-27T15:57:01.419Z,1.60
2018-08-27T15:59:28.539Z,1.67
2018-08-27T16:01:57.435Z,1.87
2018-08-27T16:04:26.545Z,1.90
2018-08-27T16:06:55.764Z,1.70
2018-08-27T16:09:24.907Z,1.80
2018-08-27T16:11:54.556Z,1.70
2018-08-27T16:14:23.787Z,1.77
2018-08-27T16:16:52.804Z,2.00
2018-08-27T16:19:21.868Z,1.70
2018-08-27T16:21:51.348Z,1.30
2018-08-27T16:24:20.504Z,1.80
2018-08-27T16:26:49.918Z,1.80
2018-08-27T16:29:19.129Z,1.70
2018-08-27T16:31:48.231Z,1.93
2018-08-27T16:34:17.216Z,2.00
2018-08-27T16:36:46.616Z,1.93
2018-08-27T16:39:15.888Z,1.87
2018-08-27T16:41:45.138Z,2.10
2018-08-27T16:44:14.320Z,1.80
2018-08-27T16:46:43.442Z,1.80
2018-08-27T16:49:12.746Z,1.90
2018-08-27T16:51:41.699Z,1.53
2018-08-27T16:54:11.331Z,2.07
2018-08-27T16:56:40.672Z,2.07
2018-08-27T16:59:10.081Z,2.40
2018-08-27T17:01:39.361Z,2.27
2018-08-27T17:04:09.290Z,2.00
2018-08-27T17:06:38.461Z,2.20
2018-08-27T17:09:07.667Z,1.67
2018-08-27T17:11:36.727Z,1.70
2018-08-27T17:14:06.310Z,1.60
2018-08-27T17:16:35.737Z,1.90
2018-08-27T17:19:04.842Z,2.00
2018-08-27T17:21:33.827Z,2.23
2018-08-27T17:24:02.970Z,2.17
2018-08-27T17:26:32.481Z,2.30
2018-08-27T17:29:01.646Z,2.07
2018-08-27T17:31:30.954Z,1.83
2018-08-27T17:34:00.201Z,2.07
2018-08-27T17:36:29.365Z,2.30
2018-08-27T17:38:58.537Z,2.10
2018-08-27T17:41:27.635Z,2.10
2018-08-27T17:43:57.120Z,1.83
2018-08-27T17:46:26.290Z,1.60
2018-08-27T17:48:55.632Z,1.90
2018-08-27T17:51:24.869Z,2.13
2018-08-27T17:53:54.347Z,1.70
2018-08-27T17:56:23.568Z,1.87
2018-08-27T17:58:53.080Z,2.13
2018-08-27T18:01:22.626Z,2.20
2018-08-27T18:03:51.904Z,2.17
2018-08-27T18:06:21.187Z,2.10
2018-08-27T18:08:53.458Z,2.37
2018-08-27T18:11:22.533Z,2.37
2018-08-27T18:13:52.034Z,2.50
2018-08-27T18:16:21.586Z,2.10
2018-08-27T18:18:50.944Z,1.70
2018-08-27T18:21:21.209Z,1.93
2018-08-27T18:23:50.288Z,1.87
2018-08-27T18:26:19.712Z,1.73
2018-08-27T18:28:49.840Z,1.97
2018-08-27T18:31:19.043Z,2.07
2018-08-27T18:33:48.875Z,2.03
2018-08-27T18:36:18.191Z,2.03
2018-08-27T18:38:47.286Z,2.10
2018-08-27T18:41:16.634Z,2.00
2018-08-27T18:43:47.065Z,2.10
2018-08-27T18:46:17.300Z,2.20
2018-08-27T18:48:46.675Z,2.40
2018-08-27T18:51:15.738Z,2.33
2018-08-27T18:53:45.193Z,2.00
2018-08-27T18:56:14.356Z,2.20
2018-08-27T18:58:43.624Z,2.27
2018-08-27T19:01:12.939Z,2.20
2018-08-27T19:03:42.677Z,2.17
2018-08-27T19:06:12.175Z,2.10
2018-08-27T19:08:41.573Z,2.23
2018-08-27T19:11:11.113Z,2.43
2018-08-27T19:13:40.558Z,2.30
2018-08-27T19:16:10.141Z,2.40
2018-08-27T19:18:40.450Z,4.03
2018-08-27T19:21:10.078Z,3.20
2018-08-27T19:23:39.421Z,2.50
2018-08-27T19:26:08.976Z,2.67
2018-08-27T19:28:39.044Z,3.03
2018-08-27T19:31:08.492Z,2.20
2018-08-27T19:33:37.991Z,2.97
2018-08-27T19:36:07.353Z,4.57
2018-08-27T19:38:36.849Z,2.73
2018-08-27T19:41:06.221Z,2.20
2018-08-27T19:43:35.557Z,2.80
2018-08-27T19:46:04.981Z,2.20
2018-08-27T19:48:33.965Z,2.10
2018-08-27T19:51:06.408Z,2.30
2018-08-27T19:53:35.742Z,2.43
2018-08-27T19:56:04.975Z,2.70
2018-08-27T19:58:34.296Z,2.60
2018-08-27T20:01:03.468Z,2.70
2018-08-27T20:03:33.043Z,2.10
2018-08-27T20:06:02.903Z,2.17
2018-08-27T20:08:34.471Z,2.70
2018-08-27T20:11:04.106Z,2.00
2018-08-27T20:13:35.948Z,2.60
2018-08-27T20:16:07.396Z,2.60
2018-08-27T20:18:42.980Z,2.67
2018-08-27T20:21:12.383Z,3.10
2018-08-27T20:23:41.723Z,2.93
2018-08-27T20:26:11.200Z,2.27
2018-08-27T20:28:40.512Z,2.97
2018-08-27T20:31:09.791Z,2.50
2018-08-27T20:33:39.487Z,2.50
2018-08-27T20:36:08.735Z,2.40
2018-08-27T20:38:37.994Z,2.37
2018-08-27T20:41:07.569Z,4.07
2018-08-27T20:43:37.818Z,2.40
2018-08-27T20:46:07.452Z,2.80
2018-08-27T20:48:37.342Z,2.60
2018-08-27T20:51:06.837Z,3.07
2018-08-27T20:53:36.094Z,2.70
2018-08-27T20:56:07.195Z,2.33
2018-08-27T20:58:37.027Z,2.50
2018-08-27T21:01:06.876Z,2.40
2018-08-27T21:03:36.108Z,2.60
2018-08-27T21:06:05.384Z,2.50
2018-08-27T21:08:34.681Z,2.67
2018-08-27T21:11:03.988Z,2.60
2018-08-27T21:13:33.195Z,2.77
2018-08-27T21:16:02.475Z,3.70
2018-08-27T21:18:31.896Z,2.50
2018-08-27T21:21:02.137Z,2.30
2018-08-27T21:23:31.631Z,2.30
2018-08-27T21:26:00.751Z,3.07
2018-08-27T21:28:30.226Z,2.90
2018-08-27T21:30:59.644Z,3.03
2018-08-27T21:33:29.115Z,3.00
2018-08-27T21:35:58.513Z,3.10
2018-08-27T21:38:27.953Z,3.37
2018-08-27T21:40:58.010Z,3.80
2018-08-27T21:43:27.170Z,3.97
2018-08-27T21:45:56.605Z,3.63
2018-08-27T21:48:25.659Z,3.27
2018-08-27T21:50:55.057Z,3.70
2018-08-27T21:53:24.363Z,2.90
2018-08-27T21:55:53.497Z,3.90
2018-08-27T21:58:22.874Z,3.37
2018-08-27T22:00:56.317Z,2.90
2018-08-27T22:04:35.008Z,3.73
2018-08-27T22:07:04.686Z,3.67
2018-08-27T22:09:33.997Z,3.13
2018-08-27T22:12:03.605Z,3.37
2018-08-27T22:14:33.050Z,3.70
2018-08-27T22:17:02.453Z,3.63
2018-08-27T22:19:31.807Z,3.50
2018-08-27T22:22:01.751Z,2.90
2018-08-27T22:24:31.325Z,3.40
2018-08-27T22:27:01.070Z,3.03
2018-08-27T22:29:30.249Z,2.80
2018-08-27T22:31:59.688Z,2.83
2018-08-27T22:34:28.909Z,2.97
2018-08-27T22:36:58.407Z,2.80
2018-08-27T22:39:31.818Z,2.70
2018-08-27T22:42:01.082Z,2.57
2018-08-27T22:44:30.302Z,2.57
2018-08-27T22:46:59.529Z,2.23
2018-08-27T22:49:29.177Z,2.50
2018-08-27T22:51:59.215Z,2.27
2018-08-27T22:54:29.265Z,2.73
2018-08-27T22:56:58.504Z,2.50
2018-08-27T22:59:28.409Z,2.37
2018-08-27T23:01:57.809Z,2.57
2018-08-27T23:04:32.168Z,2.50
2018-08-27T23:07:01.360Z,2.43
2018-08-27T23:09:31.206Z,2.40
2018-08-27T23:12:00.607Z,2.73
2018-08-27T23:14:29.697Z,2.40
2018-08-27T23:16:59.100Z,2.70
2018-08-27T23:19:28.471Z,2.80
2018-08-27T23:21:57.805Z,2.20
2018-08-27T23:24:27.265Z,2.23
2018-08-27T23:26:56.546Z,2.40
2018-08-27T23:29:25.821Z,2.70
2018-08-27T23:31:55.061Z,2.67
2018-08-27T23:34:24.335Z,3.00
2018-08-27T23:36:53.700Z,2.00
2018-08-27T23:39:23.096Z,2.10
2018-08-27T23:41:52.753Z,2.80
2018-08-27T23:44:21.843Z,2.80
2018-08-27T23:46:50.901Z,2.40
2018-08-27T23:49:20.185Z,2.23
2018-08-27T23:51:50.023Z,2.83
2018-08-27T23:54:21.998Z,2.50
2018-08-27T23:56:51.427Z,2.67
2018-08-27T23:59:20.735Z,2.70
